Portada
METAR-TAF:

METAR-TAF

Aeropuertos :

Cerklje ob Krki, Eslovenia

latitud: 45-53-59N, longitud: 15-30-55E, altitud: 157 m

Observación

El informe se hizo hace 19 minutos, a las 07:30 UTC
Viento 2 kt con dirección variable
Temperatura 6°C
Humedad 65%
Presión 1022 hPa
Visibilidad 10 km o más
sin nubes por debajo de 1500 m y sin presencia de cumulonimbus.

METAR: LJCE 160730Z VRB02KT CAVOK 06/M00 Q1022 RMK BLU

Hora: 09:49 (07:49 UTC)

Pronóstico

El informe se hizo hace 2 horas y 49 minutos, a las 05:00 UTC
Pronóstico válido del 16 a las 06 UTC al 16 a las 15 UTC
Viento 3 kt del este
Visibilidad 10 km o más
sin nubes por debajo de 1500 m y sin presencia de cumulonimbus.

TAF: LJCE 160500Z 1606/1615 08003KT CAVOK

Observaciones y pronósticos meteorológicos de más de 4000 aeropuertos (mensajes METAR y TAF).

Los puntos amarillos y rojos representan las estaciones disponibles.

Ponga el ratón en el punto deseado para ver el nombre de la estación.

Haga clic para ver las observaciones y los pronósticos meteorológicos.

Para cambiar el mapa : haga clic en los botones verdes con una cruz de color negro para hacer un zoom, en el botón verde con un guión para alejar o en las flechas verdes para mapas adyacentes.


METAR-TAF: